Time;durP1;ratioP1;P1;durP2;ratioP2;P2;SDS_P1;SDS_P2;PMS_P1;PMS_P2;Temp;Humidity;BMP_temperature;BMP_pressure;BME280_temperature;BME280_humidity;BME280_pressure;Samples;Min_cycle;Max_cycle;Signal;HPM_P1;HPM_P2
2023/01/06 00:00:29;;;;;;;35.60;6.03;;;8.40;99.90;;;;;;4671890;28;10001062;-84
2023/01/06 00:02:55;;;;;;;32.35;5.78;;;8.40;99.90;;;;;;5051616;28;20665;-84
2023/01/06 00:05:20;;;;;;;25.30;5.80;;;8.30;99.90;;;;;;5057730;28;20016;-84
2023/01/06 00:07:50;;;;;;;23.52;5.03;;;8.40;99.90;;;;;;5069340;28;20024;-84
2023/01/06 00:10:16;;;;;;;20.40;4.80;;;8.40;99.90;;;;;;5067477;28;20151;-84
2023/01/06 00:12:46;;;;;;;23.70;5.68;;;8.40;99.90;;;;;;5062137;28;20020;-84
2023/01/06 00:15:12;;;;;;;24.25;5.43;;;8.40;99.90;;;;;;5068769;28;20089;-84
2023/01/06 00:17:37;;;;;;;24.52;4.97;;;8.40;99.90;;;;;;5061897;28;20473;-84
2023/01/06 00:20:04;;;;;;;27.88;5.43;;;8.40;99.90;;;;;;5061545;28;20322;-85
2023/01/06 00:22:29;;;;;;;24.38;5.35;;;8.40;99.90;;;;;;5054455;28;20024;-84
2023/01/06 00:24:55;;;;;;;26.98;5.22;;;8.30;99.90;;;;;;5069991;28;20032;-84
2023/01/06 00:27:21;;;;;;;23.83;5.40;;;8.40;99.90;;;;;;5070988;28;20016;-84
2023/01/06 00:29:48;;;;;;;26.25;5.25;;;8.30;99.90;;;;;;5059603;28;20032;-84
2023/01/06 00:32:14;;;;;;;21.45;5.50;;;8.30;99.90;;;;;;5059812;28;20055;-84
2023/01/06 00:34:39;;;;;;;27.65;5.90;;;8.40;99.90;;;;;;5059123;28;20048;-83
2023/01/06 00:37:05;;;;;;;24.00;5.82;;;8.40;99.90;;;;;;5060293;28;20038;-84
2023/01/06 00:39:30;;;;;;;21.08;6.18;;;8.40;99.90;;;;;;5068357;28;20749;-83
2023/01/06 00:42:02;;;;;;;25.50;6.07;;;8.40;99.90;;;;;;5062285;28;20021;-84
2023/01/06 00:44:28;;;;;;;30.58;6.82;;;8.40;99.90;;;;;;5063507;28;20048;-84
2023/01/06 00:46:53;;;;;;;27.58;6.18;;;8.40;99.90;;;;;;5071602;28;20048;-84
2023/01/06 00:49:19;;;;;;;25.92;6.93;;;8.40;99.90;;;;;;5063359;28;20024;-84
2023/01/06 00:51:45;;;;;;;25.90;7.00;;;8.40;99.90;;;;;;5074266;28;20024;-84
2023/01/06 00:54:12;;;;;;;20.00;6.68;;;8.40;99.90;;;;;;5060576;28;20032;-84
2023/01/06 00:56:44;;;;;;;22.13;7.65;;;8.40;99.90;;;;;;5065476;28;20036;-84
2023/01/06 00:59:12;;;;;;;23.23;6.70;;;8.40;99.90;;;;;;5071832;28;20200;-84
2023/01/06 01:01:38;;;;;;;22.90;6.50;;;8.40;99.90;;;;;;5056248;28;20046;-84
2023/01/06 01:04:05;;;;;;;25.60;7.25;;;8.40;99.90;;;;;;5061502;28;20078;-86
2023/01/06 01:06:30;;;;;;;25.50;6.97;;;8.40;99.90;;;;;;5052829;28;20036;-84
2023/01/06 01:08:58;;;;;;;17.77;6.40;;;8.50;99.90;;;;;;5061648;28;20032;-84
2023/01/06 01:14:08;;;;;;;24.55;7.25;;;8.50;99.90;;;;;;5065444;28;20503;-84
2023/01/06 01:16:34;;;;;;;21.45;8.13;;;8.50;99.90;;;;;;5062104;28;20556;-84
2023/01/06 01:19:00;;;;;;;24.50;8.43;;;8.50;99.90;;;;;;5064569;28;20142;-84
2023/01/06 01:21:25;;;;;;;27.63;7.75;;;8.50;99.90;;;;;;5058216;28;20032;-84
2023/01/06 01:23:51;;;;;;;19.25;7.50;;;8.50;99.90;;;;;;5062067;28;20021;-84
2023/01/06 01:26:17;;;;;;;25.33;8.60;;;8.50;99.90;;;;;;5061250;28;20480;-84
2023/01/06 01:28:43;;;;;;;22.95;8.68;;;8.50;99.90;;;;;;5071985;28;20103;-83
2023/01/06 01:31:08;;;;;;;21.70;7.53;;;8.50;99.90;;;;;;5063387;28;20036;-84
2023/01/06 01:33:34;;;;;;;23.05;8.27;;;8.50;99.90;;;;;;5060086;28;20032;-84
2023/01/06 01:36:07;;;;;;;21.75;8.02;;;8.50;99.90;;;;;;5062809;28;20028;-83
2023/01/06 01:38:33;;;;;;;27.00;9.30;;;8.50;99.90;;;;;;5061682;28;20036;-83
2023/01/06 01:40:59;;;;;;;20.48;8.45;;;8.50;99.90;;;;;;5058823;28;20028;-83
2023/01/06 01:43:24;;;;;;;25.55;8.75;;;8.50;99.90;;;;;;5064396;28;20036;-83
2023/01/06 01:45:52;;;;;;;24.88;8.98;;;8.50;99.90;;;;;;5063080;28;20012;-83
2023/01/06 01:48:32;;;;;;;26.73;9.80;;;8.50;99.90;;;;;;5066291;28;20051;-83
2023/01/06 01:51:02;;;;;;;26.48;10.23;;;8.50;99.90;;;;;;5061231;28;20021;-83
2023/01/06 01:53:44;;;;;;;21.15;9.13;;;8.50;99.90;;;;;;5072539;28;20038;-83
2023/01/06 01:56:14;;;;;;;25.30;9.20;;;8.50;99.90;;;;;;5068955;28;20036;-82
2023/01/06 01:58:44;;;;;;;21.70;9.27;;;8.50;99.90;;;;;;5061985;28;20047;-83
2023/01/06 02:01:11;;;;;;;25.13;9.93;;;8.50;99.90;;;;;;5056615;28;20024;-83
2023/01/06 02:03:40;;;;;;;24.75;11.13;;;8.50;99.90;;;;;;5064617;28;20044;-83
2023/01/06 02:06:11;;;;;;;33.85;11.50;;;8.50;99.90;;;;;;5066004;28;20020;-84
2023/01/06 02:09:08;;;;;;;25.90;10.95;;;8.50;99.90;;;;;;5061528;28;20044;-84
2023/01/06 02:11:36;;;;;;;30.35;12.00;;;8.60;99.90;;;;;;5055658;28;20500;-83
2023/01/06 02:14:22;;;;;;;27.38;11.88;;;8.60;99.90;;;;;;5056704;28;20135;-84
2023/01/06 02:17:14;;;;;;;25.30;12.43;;;8.60;99.90;;;;;;5067350;28;20032;-83
2023/01/06 02:19:43;;;;;;;25.83;10.43;;;8.60;99.90;;;;;;5064196;28;20033;-83
2023/01/06 02:22:37;;;;;;;29.05;13.25;;;8.60;99.90;;;;;;5067308;28;20430;-82
2023/01/06 02:25:34;;;;;;;28.33;12.73;;;8.60;99.90;;;;;;5051123;28;20040;-82
2023/01/06 02:28:27;;;;;;;27.02;12.77;;;8.60;99.90;;;;;;5066767;28;20380;-82
2023/01/06 02:31:37;;;;;;;32.67;13.05;;;8.70;99.90;;;;;;5054936;28;20047;-83
2023/01/06 02:34:21;;;;;;;24.63;12.60;;;8.70;99.90;;;;;;5061993;28;20032;-82
2023/01/06 02:37:07;;;;;;;29.73;12.93;;;8.70;99.90;;;;;;5063347;28;20036;-83
2023/01/06 02:40:07;;;;;;;26.58;13.05;;;8.70;99.90;;;;;;5058049;28;20087;-82
2023/01/06 02:42:56;;;;;;;27.88;14.13;;;8.60;99.90;;;;;;5060768;28;20020;-83
2023/01/06 02:45:27;;;;;;;38.13;14.20;;;8.60;99.90;;;;;;5061143;28;20036;-83
2023/01/06 02:48:16;;;;;;;29.65;13.43;;;8.60;99.90;;;;;;5068265;28;20578;-82
2023/01/06 02:50:53;;;;;;;33.05;13.45;;;8.60;99.90;;;;;;5058735;28;20043;-83
2023/01/06 02:53:41;;;;;;;33.95;12.73;;;8.70;99.90;;;;;;5063356;28;20043;-82
2023/01/06 02:56:08;;;;;;;28.80;12.35;;;8.70;99.90;;;;;;5069930;28;20036;-82
2023/01/06 02:58:50;;;;;;;27.30;12.82;;;8.60;99.90;;;;;;5063785;28;20024;-82
2023/01/06 03:01:31;;;;;;;30.48;13.48;;;8.60;99.90;;;;;;5064545;28;20480;-83
2023/01/06 03:04:00;;;;;;;26.67;12.38;;;8.60;99.90;;;;;;5063795;28;20017;-82
2023/01/06 03:06:30;;;;;;;32.40;13.45;;;8.60;99.90;;;;;;5061074;28;20034;-83
2023/01/06 03:08:57;;;;;;;27.38;13.07;;;8.60;99.90;;;;;;5059655;28;20028;-82
2023/01/06 03:11:25;;;;;;;27.92;13.57;;;8.60;99.90;;;;;;5063773;28;20040;-83
2023/01/06 03:13:58;;;;;;;29.20;13.68;;;8.70;99.90;;;;;;5055188;28;20044;-82
2023/01/06 03:16:24;;;;;;;27.08;13.35;;;8.70;99.90;;;;;;5066190;28;20111;-83
2023/01/06 03:18:51;;;;;;;23.85;13.45;;;8.70;99.90;;;;;;5054507;28;20032;-83
2023/01/06 03:21:21;;;;;;;25.15;13.77;;;8.80;99.90;;;;;;5058755;28;20473;-82
2023/01/06 03:23:47;;;;;;;30.25;14.43;;;8.80;99.90;;;;;;5060125;28;20025;-80
2023/01/06 03:26:13;;;;;;;26.02;14.45;;;8.80;99.90;;;;;;5063266;28;20119;-82
2023/01/06 03:28:39;;;;;;;28.92;15.27;;;8.80;99.90;;;;;;5062488;28;20496;-81
2023/01/06 03:31:19;;;;;;;30.23;14.30;;;8.80;99.90;;;;;;5058907;28;20020;-81
2023/01/06 03:34:21;;;;;;;31.42;15.00;;;8.80;99.90;;;;;;5059627;28;20025;-81
2023/01/06 03:36:59;;;;;;;31.98;14.40;;;8.80;99.90;;;;;;5054946;28;20028;-81
2023/01/06 03:39:46;;;;;;;26.92;13.45;;;8.90;99.90;;;;;;5063860;28;20036;-81
2023/01/06 03:45:34;;;;;;;27.70;13.35;;;8.80;99.90;;;;;;5057478;28;20039;-81
2023/01/06 03:48:28;;;;;;;27.85;13.45;;;8.80;99.90;;;;;;5068228;28;20040;-81
2023/01/06 03:51:09;;;;;;;27.08;12.85;;;8.80;99.90;;;;;;5031759;28;20043;-81
2023/01/06 03:54:00;;;;;;;27.80;12.80;;;8.80;99.90;;;;;;5067661;28;20028;-81
2023/01/06 03:56:32;;;;;;;28.48;13.13;;;8.80;99.90;;;;;;5061414;28;20108;-81
2023/01/06 03:59:03;;;;;;;28.85;12.88;;;8.80;99.90;;;;;;5067543;28;20032;-82
2023/01/06 04:01:29;;;;;;;29.13;13.38;;;8.80;99.90;;;;;;5062465;28;20474;-81
2023/01/06 04:03:55;;;;;;;26.73;13.27;;;8.80;99.90;;;;;;5064919;28;20025;-82
2023/01/06 04:06:21;;;;;;;26.02;13.13;;;8.80;99.90;;;;;;5071142;28;20071;-82
2023/01/06 04:08:46;;;;;;;23.13;12.75;;;8.80;99.90;;;;;;5071052;28;20048;-83
2023/01/06 04:12:37;;;;;;;28.65;13.52;;;8.80;99.90;;;;;;5059231;28;20032;-82
2023/01/06 04:13:58;;;;;;;25.95;12.95;;;8.80;99.90;;;;;;5057810;28;20032;-81
2023/01/06 04:16:24;;;;;;;19.45;12.00;;;8.80;99.90;;;;;;5055259;28;20064;-82
2023/01/06 04:18:49;;;;;;;20.83;11.98;;;8.80;99.90;;;;;;5064935;28;20142;-82
2023/01/06 04:21:15;;;;;;;19.13;11.93;;;8.80;99.90;;;;;;5061014;28;20024;-82
2023/01/06 04:23:41;;;;;;;19.05;11.57;;;8.90;99.90;;;;;;5061184;28;20025;-81
2023/01/06 04:26:06;;;;;;;21.00;12.07;;;8.90;99.90;;;;;;5062229;28;20139;-81
2023/01/06 04:28:32;;;;;;;23.30;13.02;;;8.90;99.90;;;;;;5057285;28;20035;-81
2023/01/06 04:30:59;;;;;;;25.85;13.27;;;8.90;99.90;;;;;;5055533;28;20064;-81
2023/01/06 04:33:25;;;;;;;25.80;13.15;;;8.90;99.90;;;;;;5059233;28;20032;-81
2023/01/06 04:35:51;;;;;;;26.17;13.07;;;8.90;99.90;;;;;;5063666;28;20032;-82
2023/01/06 04:38:17;;;;;;;21.70;13.40;;;9.00;99.90;;;;;;5064999;28;20064;-82
2023/01/06 04:40:43;;;;;;;23.17;12.70;;;9.00;99.90;;;;;;5067225;28;20032;-81
2023/01/06 04:43:14;;;;;;;22.38;12.88;;;9.00;99.90;;;;;;5067600;28;20029;-81
2023/01/06 04:45:41;;;;;;;23.75;12.07;;;9.00;99.90;;;;;;5061878;28;20454;-81
2023/01/06 04:48:07;;;;;;;16.55;10.75;;;9.00;99.90;;;;;;5064009;28;20596;-80
2023/01/06 04:50:33;;;;;;;16.77;10.52;;;9.00;99.90;;;;;;5063436;28;20031;-80
2023/01/06 04:52:59;;;;;;;19.67;11.73;;;9.00;99.90;;;;;;5063279;28;20020;-81
2023/01/06 04:55:24;;;;;;;29.67;15.90;;;9.00;99.90;;;;;;5066037;28;20023;-81
2023/01/06 04:57:50;;;;;;;25.58;12.98;;;8.90;99.90;;;;;;5066020;28;20036;-81
2023/01/06 05:00:16;;;;;;;23.67;12.18;;;9.00;99.90;;;;;;5065600;28;20028;-81
2023/01/06 05:02:42;;;;;;;16.40;9.32;;;9.00;99.90;;;;;;5066803;28;20581;-81
2023/01/06 05:05:08;;;;;;;15.32;8.90;;;9.00;99.90;;;;;;5065303;28;20028;-81
2023/01/06 05:07:34;;;;;;;16.20;10.07;;;9.00;99.90;;;;;;5068600;28;20082;-81
2023/01/06 05:09:59;;;;;;;16.50;9.73;;;9.00;99.90;;;;;;5058676;28;20036;-81
2023/01/06 05:12:25;;;;;;;16.10;10.10;;;9.00;99.90;;;;;;5055727;28;20037;-81
2023/01/06 05:14:50;;;;;;;23.15;10.43;;;9.00;99.90;;;;;;5065622;28;20392;-81
2023/01/06 05:17:16;;;;;;;15.48;10.10;;;9.00;99.90;;;;;;5062868;28;20037;-81
2023/01/06 05:19:43;;;;;;;16.48;10.00;;;9.00;99.90;;;;;;5061872;28;20056;-81
2023/01/06 05:22:10;;;;;;;22.65;10.30;;;9.00;99.90;;;;;;5055973;28;20090;-82
2023/01/06 05:24:36;;;;;;;15.70;10.18;;;9.00;99.90;;;;;;5053698;28;20035;-82
2023/01/06 05:27:01;;;;;;;18.83;9.80;;;9.00;99.90;;;;;;5059436;28;21073;-82
2023/01/06 05:29:27;;;;;;;14.52;9.45;;;9.00;99.90;;;;;;5063392;28;20123;-82
2023/01/06 05:31:53;;;;;;;13.95;8.98;;;9.00;99.90;;;;;;5058852;28;20496;-82
2023/01/06 05:34:18;;;;;;;11.93;8.57;;;8.90;99.90;;;;;;5055692;28;20029;-82
2023/01/06 05:36:44;;;;;;;12.52;8.57;;;8.90;99.90;;;;;;5060974;28;20028;-82
2023/01/06 05:39:09;;;;;;;13.15;8.90;;;8.90;99.90;;;;;;5064591;28;20035;-82
2023/01/06 05:41:35;;;;;;;14.50;8.80;;;8.80;99.90;;;;;;5054254;28;20077;-82
2023/01/06 05:44:01;;;;;;;12.32;8.30;;;8.80;99.90;;;;;;5067484;28;20020;-82
2023/01/06 05:46:26;;;;;;;12.25;8.18;;;8.80;99.90;;;;;;5064592;28;20029;-82
2023/01/06 05:48:52;;;;;;;9.88;8.00;;;8.80;99.90;;;;;;5068000;28;20074;-82
2023/01/06 05:51:17;;;;;;;11.45;7.65;;;8.80;99.90;;;;;;5059038;28;21472;-81
2023/01/06 05:53:46;;;;;;;13.65;7.70;;;8.80;99.90;;;;;;5064594;28;20040;-82
2023/01/06 05:56:14;;;;;;;12.02;6.68;;;8.70;99.90;;;;;;5065578;28;20508;-81
2023/01/06 05:58:44;;;;;;;8.13;5.75;;;8.70;99.90;;;;;;5067919;28;20108;-81
2023/01/06 06:01:21;;;;;;;8.05;5.72;;;8.70;99.90;;;;;;5057652;28;20122;-81
2023/01/06 06:03:48;;;;;;;9.23;6.15;;;8.70;99.90;;;;;;5062765;28;20092;-81
2023/01/06 06:06:13;;;;;;;11.02;5.70;;;8.70;99.90;;;;;;5066942;28;20099;-81
2023/01/06 06:08:39;;;;;;;8.68;5.97;;;8.70;99.90;;;;;;5070351;28;20116;-81
2023/01/06 06:11:11;;;;;;;7.55;5.20;;;8.60;99.90;;;;;;5060114;28;20039;-81
2023/01/06 06:13:37;;;;;;;7.43;5.30;;;8.60;99.90;;;;;;5058144;28;20083;-81
2023/01/06 06:16:07;;;;;;;9.93;4.90;;;8.60;99.90;;;;;;5068316;28;20381;-81
2023/01/06 06:18:35;;;;;;;8.38;4.63;;;8.60;99.90;;;;;;5061415;28;20073;-81
2023/01/06 06:21:04;;;;;;;8.82;4.68;;;8.70;99.90;;;;;;5058978;28;20111;-81
2023/01/06 06:23:30;;;;;;;8.98;4.30;;;8.70;99.90;;;;;;5061078;28;20179;-81
2023/01/06 06:25:56;;;;;;;5.97;3.97;;;8.70;99.90;;;;;;5064518;28;20020;-81
2023/01/06 06:28:22;;;;;;;4.25;3.50;;;8.70;99.90;;;;;;5064676;28;20508;-81
2023/01/06 06:30:47;;;;;;;5.72;3.40;;;8.70;99.90;;;;;;5061311;28;20102;-81
2023/01/06 06:33:13;;;;;;;6.93;3.47;;;8.70;99.90;;;;;;5061349;28;20082;-81
2023/01/06 06:35:39;;;;;;;8.88;3.80;;;8.70;99.90;;;;;;5059401;28;20029;-81
2023/01/06 06:38:04;;;;;;;4.65;3.30;;;8.70;99.90;;;;;;5069729;28;20397;-81
2023/01/06 06:40:30;;;;;;;7.68;3.50;;;8.70;99.90;;;;;;5067527;28;20016;-81
2023/01/06 06:42:56;;;;;;;7.72;3.20;;;8.70;99.90;;;;;;5064033;28;20052;-81
2023/01/06 06:45:22;;;;;;;9.02;3.10;;;8.60;99.90;;;;;;5063599;28;20017;-81
2023/01/06 06:47:48;;;;;;;9.00;3.85;;;8.70;99.90;;;;;;5061242;28;20135;-81
2023/01/06 06:50:13;;;;;;;5.45;3.30;;;8.70;99.90;;;;;;5057137;28;20606;-81
2023/01/06 06:52:39;;;;;;;8.57;4.38;;;8.70;99.90;;;;;;5059485;28;20388;-81
2023/01/06 06:55:05;;;;;;;9.25;6.05;;;8.60;99.90;;;;;;5058509;28;20031;-81
2023/01/06 06:57:30;;;;;;;11.23;5.85;;;8.60;99.90;;;;;;5051511;28;20085;-80
2023/01/06 06:59:56;;;;;;;6.97;4.63;;;8.60;99.90;;;;;;5056698;28;20096;-81
2023/01/06 07:02:21;;;;;;;5.95;4.00;;;8.60;99.90;;;;;;5054751;28;20105;-81
2023/01/06 07:04:47;;;;;;;6.15;2.90;;;8.60;99.90;;;;;;5052505;28;20028;-80
2023/01/06 07:07:13;;;;;;;8.57;3.63;;;8.60;99.90;;;;;;5053823;28;20039;-80
2023/01/06 07:09:38;;;;;;;8.07;3.80;;;8.60;99.90;;;;;;5051218;28;20866;-81
2023/01/06 07:12:04;;;;;;;6.07;3.10;;;8.60;99.90;;;;;;5045934;28;20040;-81
2023/01/06 07:14:30;;;;;;;6.07;3.10;;;8.60;99.90;;;;;;5054185;28;20036;-81
2023/01/06 07:16:59;;;;;;;6.95;2.80;;;8.60;99.90;;;;;;5061534;28;20024;-81
2023/01/06 07:19:25;;;;;;;10.50;5.10;;;8.60;99.90;;;;;;5049222;28;20017;-81
2023/01/06 07:21:50;;;;;;;6.88;3.58;;;8.60;99.90;;;;;;5047597;28;20027;-82
2023/01/06 07:24:16;;;;;;;4.95;2.55;;;8.50;99.90;;;;;;5049502;28;20056;-81
2023/01/06 07:26:41;;;;;;;4.30;2.60;;;8.50;99.90;;;;;;5051813;28;20798;-82
2023/01/06 07:29:07;;;;;;;3.45;2.03;;;8.50;99.90;;;;;;5062527;28;20428;-81
2023/01/06 07:31:33;;;;;;;4.22;2.35;;;8.50;99.90;;;;;;5052777;28;20024;-81
2023/01/06 07:33:58;;;;;;;8.65;5.25;;;8.50;99.90;;;;;;5056789;28;20138;-81
2023/01/06 07:36:24;;;;;;;8.50;4.57;;;8.50;99.90;;;;;;5053894;28;20032;-81
2023/01/06 07:38:49;;;;;;;5.60;2.20;;;8.50;99.90;;;;;;5068276;28;20419;-81
2023/01/06 07:41:15;;;;;;;4.25;1.98;;;8.40;99.90;;;;;;5055701;28;20045;-81
2023/01/06 07:43:40;;;;;;;7.05;2.17;;;8.50;99.90;;;;;;5059060;28;20481;-81
2023/01/06 07:46:06;;;;;;;4.10;2.45;;;8.40;99.90;;;;;;5060325;28;20048;-82
2023/01/06 07:48:32;;;;;;;5.07;2.50;;;8.40;99.90;;;;;;5049693;28;20119;-81
2023/01/06 07:50:58;;;;;;;7.22;2.72;;;8.40;99.90;;;;;;5052507;28;20551;-81
2023/01/06 07:53:23;;;;;;;3.15;2.42;;;8.40;99.90;;;;;;5045705;28;20025;-81
2023/01/06 07:55:51;;;;;;;23.75;3.67;;;8.40;99.90;;;;;;5051237;28;20039;-82
2023/01/06 07:58:17;;;;;;;9.27;3.50;;;8.40;99.90;;;;;;5050184;28;20405;-82
2023/01/06 08:00:43;;;;;;;3.42;1.80;;;8.50;99.90;;;;;;5056791;28;20029;-82
2023/01/06 08:03:10;;;;;;;3.85;2.00;;;8.50;99.90;;;;;;5060871;28;20158;-82
2023/01/06 08:05:40;;;;;;;6.15;2.92;;;8.50;99.90;;;;;;5064845;28;20055;-81
2023/01/06 08:08:07;;;;;;;10.20;2.92;;;8.50;99.90;;;;;;5061820;28;20033;-82
2023/01/06 08:10:33;;;;;;;5.38;2.78;;;8.50;99.90;;;;;;5059597;28;20112;-81
2023/01/06 08:12:59;;;;;;;5.80;2.80;;;8.50;99.90;;;;;;5049407;28;20120;-82
2023/01/06 08:15:25;;;;;;;3.42;1.45;;;8.50;99.90;;;;;;5057622;28;20730;-81
2023/01/06 08:17:54;;;;;;;2.08;1.20;;;8.50;99.90;;;;;;5074544;28;20032;-82
2023/01/06 08:20:20;;;;;;;1.75;0.85;;;8.60;99.90;;;;;;5060980;28;20030;-80
2023/01/06 08:22:46;;;;;;;5.05;0.93;;;8.60;99.90;;;;;;5057828;28;20469;-82
2023/01/06 08:25:11;;;;;;;5.18;0.90;;;8.60;99.90;;;;;;5060834;28;20354;-81
2023/01/06 08:27:37;;;;;;;3.60;1.10;;;8.60;99.90;;;;;;5065234;28;20439;-82
2023/01/06 08:30:03;;;;;;;4.97;0.93;;;8.60;99.90;;;;;;5071339;28;20454;-81
2023/01/06 08:32:29;;;;;;;1.30;1.00;;;8.70;99.90;;;;;;5068076;28;20067;-83
2023/01/06 08:34:55;;;;;;;4.53;1.17;;;8.70;99.90;;;;;;5060857;28;20473;-82
2023/01/06 08:37:20;;;;;;;3.78;1.63;;;8.60;99.90;;;;;;5066323;28;20089;-82
2023/01/06 08:39:46;;;;;;;3.20;1.20;;;8.70;99.90;;;;;;5062795;28;20036;-82
2023/01/06 08:42:12;;;;;;;5.32;1.80;;;8.70;99.90;;;;;;5061126;28;20021;-82
2023/01/06 08:44:38;;;;;;;3.30;1.70;;;8.70;99.90;;;;;;5065537;28;20528;-81
2023/01/06 08:47:04;;;;;;;5.43;2.10;;;8.70;99.90;;;;;;5062998;28;20074;-82
2023/01/06 08:49:29;;;;;;;2.90;1.40;;;8.70;99.90;;;;;;5060383;28;20032;-82
2023/01/06 08:51:55;;;;;;;2.13;1.25;;;8.70;99.90;;;;;;5054710;28;20388;-83
2023/01/06 08:54:21;;;;;;;5.15;1.80;;;8.70;99.90;;;;;;5066408;28;20029;-82
2023/01/06 08:56:46;;;;;;;4.72;1.60;;;8.70;99.90;;;;;;5070769;28;20028;-82
2023/01/06 08:59:15;;;;;;;1.95;1.00;;;8.70;99.90;;;;;;5064222;28;20020;-82
2023/01/06 09:01:41;;;;;;;4.07;1.35;;;8.70;99.90;;;;;;5062679;28;20028;-82
2023/01/06 09:04:08;;;;;;;2.22;1.27;;;8.70;99.90;;;;;;5066501;28;20166;-82
2023/01/06 09:06:34;;;;;;;2.60;1.50;;;8.70;99.90;;;;;;5064436;28;20029;-83
2023/01/06 09:09:02;;;;;;;3.30;1.20;;;8.70;99.90;;;;;;5053297;28;20396;-82
2023/01/06 09:11:27;;;;;;;6.43;1.73;;;8.70;99.90;;;;;;5060806;28;20024;-82
2023/01/06 09:13:53;;;;;;;3.70;1.30;;;8.70;99.90;;;;;;5066527;28;20510;-82
2023/01/06 09:16:19;;;;;;;4.55;1.38;;;8.70;99.90;;;;;;5073968;28;20499;-82
2023/01/06 09:18:49;;;;;;;3.67;1.73;;;8.80;99.90;;;;;;5065203;28;20065;-82
2023/01/06 09:21:19;;;;;;;3.13;1.30;;;8.80;99.90;;;;;;5063936;28;20024;-81
2023/01/06 09:23:46;;;;;;;2.38;1.20;;;8.80;99.90;;;;;;5060478;28;20028;-81
2023/01/06 09:26:15;;;;;;;2.70;1.40;;;8.80;99.90;;;;;;5060707;28;20162;-82
2023/01/06 09:28:41;;;;;;;3.00;1.00;;;8.80;99.90;;;;;;5069222;28;20089;-83
2023/01/06 09:31:07;;;;;;;4.93;1.50;;;8.80;99.90;;;;;;5061250;28;20029;-82
2023/01/06 09:33:33;;;;;;;3.60;1.70;;;8.80;99.90;;;;;;5069422;28;20032;-83
2023/01/06 09:35:58;;;;;;;4.30;1.63;;;8.80;99.90;;;;;;5065502;28;20033;-83
2023/01/06 09:38:26;;;;;;;3.67;1.70;;;8.80;99.90;;;;;;5063745;28;20028;-82
2023/01/06 09:41:20;;;;;;;5.90;2.30;;;8.90;99.90;;;;;;5064001;28;20031;-82
2023/01/06 09:43:57;;;;;;;4.43;1.60;;;8.90;99.90;;;;;;5067200;28;20028;-81
2023/01/06 09:46:27;;;;;;;3.75;1.48;;;8.90;99.90;;;;;;5082660;28;20043;-83
2023/01/06 09:49:04;;;;;;;2.42;1.20;;;9.00;99.90;;;;;;5064074;28;20060;-83
2023/01/06 09:51:32;;;;;;;4.43;1.20;;;9.00;99.90;;;;;;5060133;28;20050;-83
2023/01/06 09:54:16;;;;;;;3.03;1.17;;;9.00;99.90;;;;;;5067141;28;20070;-83
2023/01/06 09:56:45;;;;;;;4.00;1.00;;;9.00;99.90;;;;;;5051721;28;20025;-83
2023/01/06 09:59:23;;;;;;;3.88;0.95;;;9.00;99.90;;;;;;5063325;28;20060;-82
2023/01/06 10:01:50;;;;;;;5.03;1.00;;;9.10;99.90;;;;;;5066364;28;20146;-82
2023/01/06 10:04:25;;;;;;;3.65;0.85;;;9.10;99.90;;;;;;5067856;28;20529;-83
2023/01/06 10:07:06;;;;;;;3.63;1.30;;;9.10;99.90;;;;;;5067419;28;20048;-83
2023/01/06 10:09:47;;;;;;;5.00;1.90;;;9.10;99.90;;;;;;5057697;28;20040;-83
2023/01/06 10:12:38;;;;;;;2.90;0.60;;;9.20;99.90;;;;;;5055423;28;20033;-83
2023/01/06 10:15:32;;;;;;;4.93;1.10;;;9.20;99.90;;;;;;5064266;28;20032;-83
2023/01/06 10:18:29;;;;;;;2.17;0.70;;;9.20;99.90;;;;;;5058282;28;20032;-84
2023/01/06 10:21:02;;;;;;;2.05;0.57;;;9.20;99.90;;;;;;5059078;28;20055;-84
2023/01/06 10:23:41;;;;;;;2.03;0.60;;;9.30;99.90;;;;;;5064716;28;20580;-84
2023/01/06 10:26:12;;;;;;;2.65;0.90;;;9.30;99.90;;;;;;5061881;28;20223;-84
2023/01/06 10:28:52;;;;;;;2.10;0.88;;;9.30;99.90;;;;;;5056579;28;20772;-85
2023/01/06 10:31:24;;;;;;;2.75;0.70;;;9.30;99.90;;;;;;5062476;28;20032;-84
2023/01/06 10:33:52;;;;;;;0.98;0.80;;;9.40;99.90;;;;;;5059852;28;20027;-84
2023/01/06 10:36:41;;;;;;;3.20;0.73;;;9.40;99.90;;;;;;5055408;28;20071;-81
2023/01/06 10:39:18;;;;;;;3.53;0.98;;;9.40;99.90;;;;;;5052640;28;20039;-85
2023/01/06 10:44:55;;;;;;;1.63;0.52;;;9.50;99.90;;;;;;5062687;28;20039;-85
2023/01/06 10:47:29;;;;;;;2.17;0.60;;;9.60;99.90;;;;;;5056231;28;20052;-83
2023/01/06 10:49:54;;;;;;;1.73;0.77;;;9.60;99.90;;;;;;5065224;28;20035;-86
2023/01/06 10:52:21;;;;;;;3.15;0.77;;;9.70;99.90;;;;;;5064156;28;20031;-86
2023/01/06 10:54:49;;;;;;;1.73;0.90;;;9.70;99.90;;;;;;5061821;28;20021;-87
2023/01/06 10:57:25;;;;;;;3.60;1.08;;;9.70;99.90;;;;;;5060815;28;20508;-86
2023/01/06 11:00:09;;;;;;;1.98;0.98;;;9.70;99.90;;;;;;5062696;28;20457;-87
2023/01/06 11:02:35;;;;;;;2.33;0.80;;;9.70;99.90;;;;;;5065734;28;20052;-86
2023/01/06 11:05:01;;;;;;;5.03;1.05;;;9.70;99.90;;;;;;5055489;28;20059;-85
2023/01/06 11:07:28;;;;;;;4.63;0.70;;;9.80;99.90;;;;;;5069850;28;20021;-86
2023/01/06 11:09:55;;;;;;;2.58;0.68;;;9.80;99.90;;;;;;5066336;28;20029;-87
2023/01/06 11:12:27;;;;;;;1.75;0.75;;;9.80;99.90;;;;;;5065808;28;20031;-86
2023/01/06 11:15:01;;;;;;;4.25;1.38;;;10.00;99.90;;;;;;5062709;28;20115;-86
2023/01/06 11:17:28;;;;;;;1.38;1.20;;;9.90;99.90;;;;;;5064748;28;20154;-87
2023/01/06 11:20:17;;;;;;;4.05;1.25;;;9.90;99.90;;;;;;5065851;28;20029;-86
2023/01/06 11:22:43;;;;;;;1.58;1.20;;;9.90;99.90;;;;;;5061927;28;20022;-87
2023/01/06 11:25:29;;;;;;;2.75;1.20;;;9.90;99.90;;;;;;5058428;28;20029;-87
2023/01/06 11:28:18;;;;;;;2.33;1.70;;;9.90;99.90;;;;;;5047604;28;20032;-87
2023/01/06 11:30:44;;;;;;;3.30;1.20;;;9.80;99.90;;;;;;5064692;28;20033;-87
2023/01/06 11:33:21;;;;;;;2.40;0.90;;;9.90;99.90;;;;;;5064437;28;20032;-86
2023/01/06 11:35:47;;;;;;;1.63;0.60;;;9.90;99.90;;;;;;5054377;28;20260;-87
2023/01/06 11:38:15;;;;;;;3.97;1.42;;;9.90;99.90;;;;;;5063316;28;20441;-87
2023/01/06 11:40:43;;;;;;;3.85;1.10;;;9.90;99.90;;;;;;5064447;28;20020;-87
2023/01/06 11:43:21;;;;;;;3.45;1.00;;;9.90;99.90;;;;;;5062749;28;20032;-88
2023/01/06 11:45:53;;;;;;;1.92;1.00;;;9.90;99.90;;;;;;5057248;28;20255;-88
2023/01/06 11:48:34;;;;;;;2.10;1.08;;;10.00;99.90;;;;;;5059385;28;20048;-88
2023/01/06 11:51:02;;;;;;;2.60;1.02;;;9.90;99.90;;;;;;5046154;28;21072;-88
2023/01/06 11:53:28;;;;;;;9.32;1.67;;;9.90;99.90;;;;;;5061753;28;20350;-89
2023/01/06 11:55:55;;;;;;;1.35;0.80;;;9.90;99.90;;;;;;5063595;28;20503;-88
2023/01/06 11:58:31;;;;;;;2.50;0.90;;;10.00;99.90;;;;;;5067635;28;20055;-89
2023/01/06 12:01:06;;;;;;;2.63;1.08;;;10.00;99.90;;;;;;5082845;28;20433;-89
2023/01/06 12:03:44;;;;;;;2.05;0.70;;;9.90;99.90;;;;;;5064833;28;20052;-88
2023/01/06 12:06:13;;;;;;;0.77;0.70;;;9.90;99.90;;;;;;5065681;28;20401;-89
2023/01/06 12:09:11;;;;;;;2.35;0.77;;;9.90;99.90;;;;;;5068190;28;20308;-89
2023/01/06 12:11:51;;;;;;;4.97;0.85;;;10.00;99.90;;;;;;5058513;28;20040;-85
2023/01/06 12:14:18;;;;;;;3.72;0.70;;;10.00;99.90;;;;;;5070483;28;20480;-89
2023/01/06 12:17:16;;;;;;;1.08;0.50;;;9.90;99.90;;;;;;5054507;28;20037;-89
2023/01/06 12:19:51;;;;;;;3.33;0.57;;;9.90;99.90;;;;;;5065963;28;20388;-89
2023/01/06 12:22:25;;;;;;;3.25;0.88;;;9.90;99.90;;;;;;5065620;28;20468;-89
2023/01/06 12:24:54;;;;;;;5.63;2.75;;;9.90;99.90;;;;;;5067217;28;20119;-88
2023/01/06 12:27:30;;;;;;;2.47;1.40;;;9.90;99.90;;;;;;5063260;28;20370;-88
2023/01/06 12:29:58;;;;;;;4.03;1.60;;;9.90;99.90;;;;;;5058937;28;20024;-89
2023/01/06 12:32:27;;;;;;;3.88;1.95;;;9.90;99.90;;;;;;5048779;28;20013;-84
2023/01/06 12:34:58;;;;;;;4.75;1.52;;;9.80;99.90;;;;;;5057597;28;20440;-85
2023/01/06 12:37:29;;;;;;;4.53;2.03;;;9.90;99.90;;;;;;5061205;28;20027;-85
2023/01/06 12:39:59;;;;;;;3.65;1.83;;;9.90;99.90;;;;;;5054288;28;20059;-87
2023/01/06 12:43:06;;;;;;;6.45;2.70;;;9.70;99.90;;;;;;5056584;28;20017;-85
2023/01/06 12:45:53;;;;;;;2.65;1.10;;;9.80;99.90;;;;;;5050011;28;20098;-85
2023/01/06 12:48:38;;;;;;;4.80;1.00;;;9.80;99.90;;;;;;5065858;28;20358;-84
2023/01/06 12:51:10;;;;;;;3.88;2.60;;;9.80;99.90;;;;;;5064960;28;20028;-86
2023/01/06 12:53:45;;;;;;;3.63;3.05;;;9.80;99.90;;;;;;5053146;28;20997;-88
2023/01/06 12:56:30;;;;;;;3.45;1.70;;;9.80;99.90;;;;;;5054833;28;20771;-88
2023/01/06 12:59:47;;;;;;;1.77;1.67;;;9.80;99.90;;;;;;5068404;28;20062;-87
2023/01/06 13:02:28;;;;;;;2.38;0.80;;;9.60;99.90;;;;;;5027313;28;20437;-82
2023/01/06 13:04:57;;;;;;;1.00;0.95;;;;;;;;;;5056045;28;20436;-76
2023/01/06 13:07:32;;;;;;;1.65;1.20;;;;;;;;;;5064479;28;20032;-79
2023/01/06 13:10:46;;;;;;;2.53;1.08;;;10.00;99.90;;;;;;5056375;28;20489;-77
2023/01/06 13:13:26;;;;;;;3.47;1.23;;;10.00;99.90;;;;;;5051567;28;20032;-78
2023/01/06 13:15:53;;;;;;;9.98;4.05;;;10.10;99.90;;;;;;5066740;28;20035;-78
2023/01/06 13:18:36;;;;;;;4.60;2.60;;;10.20;99.90;;;;;;5070769;28;20035;-78